sensor_id;sensor_type;location;lat;lon;timestamp;pressure;altitude;pressure_sealevel;temperature;humidity
76598;BME280;65486;53.144;18.134;2023-05-10T00:00:56;101469.95;;;8.50;48.79
76598;BME280;65486;53.144;18.134;2023-05-10T00:03:29;101472.98;;;8.46;48.72
76598;BME280;65486;53.144;18.134;2023-05-10T00:06:04;101471.52;;;8.42;48.68
76598;BME280;65486;53.144;18.134;2023-05-10T00:08:33;101467.96;;;8.38;48.90
76598;BME280;65486;53.144;18.134;2023-05-10T00:11:00;101465.04;;;8.34;49.01
76598;BME280;65486;53.144;18.134;2023-05-10T00:13:27;101469.09;;;8.31;49.05
76598;BME280;65486;53.144;18.134;2023-05-10T00:15:54;101463.48;;;8.28;49.36
76598;BME280;65486;53.144;18.134;2023-05-10T00:18:21;101465.83;;;8.26;49.26
76598;BME280;65486;53.144;18.134;2023-05-10T00:20:48;101464.94;;;8.23;49.60
76598;BME280;65486;53.144;18.134;2023-05-10T00:23:16;101433.83;;;8.03;49.56
76598;BME280;65486;53.144;18.134;2023-05-10T00:25:44;101458.06;;;8.18;49.90
76598;BME280;65486;53.144;18.134;2023-05-10T00:28:11;101458.02;;;8.18;49.76
76598;BME280;65486;53.144;18.134;2023-05-10T00:30:38;101452.13;;;8.17;50.04
76598;BME280;65486;53.144;18.134;2023-05-10T00:33:05;101452.28;;;8.16;50.01
76598;BME280;65486;53.144;18.134;2023-05-10T00:35:33;101449.02;;;8.11;50.26
76598;BME280;65486;53.144;18.134;2023-05-10T00:38:01;101448.27;;;8.08;50.59
76598;BME280;65486;53.144;18.134;2023-05-10T00:40:31;101445.63;;;8.06;50.90
76598;BME280;65486;53.144;18.134;2023-05-10T00:43:02;101447.73;;;8.05;50.88
76598;BME280;65486;53.144;18.134;2023-05-10T00:45:32;101447.19;;;8.02;50.78
76598;BME280;65486;53.144;18.134;2023-05-10T00:48:02;101441.58;;;7.99;51.08
76598;BME280;65486;53.144;18.134;2023-05-10T00:50:31;101440.36;;;7.94;51.29
76598;BME280;65486;53.144;18.134;2023-05-10T00:53:01;101438.86;;;7.90;51.19
76598;BME280;65486;53.144;18.134;2023-05-10T00:55:30;101438.16;;;7.85;51.47
76598;BME280;65486;53.144;18.134;2023-05-10T00:57:57;101437.51;;;7.82;51.42
76598;BME280;65486;53.144;18.134;2023-05-10T01:00:25;101432.24;;;7.77;51.68
76598;BME280;65486;53.144;18.134;2023-05-10T01:02:55;101428.06;;;7.74;51.73
76598;BME280;65486;53.144;18.134;2023-05-10T01:05:26;101429.02;;;7.70;52.09
76598;BME280;65486;53.144;18.134;2023-05-10T01:07:56;101424.09;;;7.67;51.87
76598;BME280;65486;53.144;18.134;2023-05-10T01:10:23;101426.15;;;7.65;52.10
76598;BME280;65486;53.144;18.134;2023-05-10T01:12:50;101431.52;;;7.65;52.09
76598;BME280;65486;53.144;18.134;2023-05-10T01:15:17;101428.42;;;7.63;52.06
76598;BME280;65486;53.144;18.134;2023-05-10T01:17:47;101430.19;;;7.61;52.44
76598;BME280;65486;53.144;18.134;2023-05-10T01:20:15;101431.02;;;7.60;52.40
76598;BME280;65486;53.144;18.134;2023-05-10T01:25:49;101432.98;;;7.56;52.57
76598;BME280;65486;53.144;18.134;2023-05-10T01:34:21;101421.54;;;7.48;52.91
76598;BME280;65486;53.144;18.134;2023-05-10T01:36:55;101415.42;;;7.44;53.20
76598;BME280;65486;53.144;18.134;2023-05-10T01:39:49;101412.05;;;7.42;53.38
76598;BME280;65486;53.144;18.134;2023-05-10T01:42:47;101409.82;;;7.38;53.09
76598;BME280;65486;53.144;18.134;2023-05-10T01:45:30;101407.59;;;7.34;53.35
76598;BME280;65486;53.144;18.134;2023-05-10T01:48:10;101407.52;;;7.31;53.90
76598;BME280;65486;53.144;18.134;2023-05-10T01:50:42;101404.22;;;7.31;53.84
76598;BME280;65486;53.144;18.134;2023-05-10T01:53:13;101406.24;;;7.28;53.78
76598;BME280;65486;53.144;18.134;2023-05-10T01:55:51;101402.55;;;7.27;54.09
76598;BME280;65486;53.144;18.134;2023-05-10T01:58:49;101399.98;;;7.27;53.95
76598;BME280;65486;53.144;18.134;2023-05-10T02:02:00;101399.43;;;7.25;53.85
76598;BME280;65486;53.144;18.134;2023-05-10T02:04:31;101402.91;;;7.24;54.04
76598;BME280;65486;53.144;18.134;2023-05-10T02:07:00;101401.15;;;7.22;54.03
76598;BME280;65486;53.144;18.134;2023-05-10T02:09:27;101394.51;;;7.21;53.98
76598;BME280;65486;53.144;18.134;2023-05-10T02:11:58;101394.09;;;7.18;54.20
76598;BME280;65486;53.144;18.134;2023-05-10T02:14:27;101390.39;;;7.14;54.45
76598;BME280;65486;53.144;18.134;2023-05-10T02:16:58;101386.85;;;7.12;54.06
76598;BME280;65486;53.144;18.134;2023-05-10T02:19:32;101386.88;;;7.09;54.50
76598;BME280;65486;53.144;18.134;2023-05-10T02:22:03;101383.16;;;7.06;54.52
76598;BME280;65486;53.144;18.134;2023-05-10T02:24:32;101381.67;;;7.03;54.41
76598;BME280;65486;53.144;18.134;2023-05-10T02:27:02;101379.41;;;7.01;54.73
76598;BME280;65486;53.144;18.134;2023-05-10T02:29:31;101376.86;;;6.98;54.85
76598;BME280;65486;53.144;18.134;2023-05-10T02:31:59;101380.23;;;6.95;54.61
76598;BME280;65486;53.144;18.134;2023-05-10T02:34:28;101382.38;;;6.93;55.17
76598;BME280;65486;53.144;18.134;2023-05-10T02:36:56;101380.60;;;6.90;55.03
76598;BME280;65486;53.144;18.134;2023-05-10T02:39:28;101376.44;;;6.83;55.07
76598;BME280;65486;53.144;18.134;2023-05-10T02:41:59;101384.33;;;6.86;54.86
76598;BME280;65486;53.144;18.134;2023-05-10T02:44:30;101378.11;;;6.82;55.15
76598;BME280;65486;53.144;18.134;2023-05-10T02:46:58;101380.37;;;6.80;55.35
76598;BME280;65486;53.144;18.134;2023-05-10T02:49:28;101378.36;;;6.77;55.41
76598;BME280;65486;53.144;18.134;2023-05-10T02:51:59;101379.28;;;6.75;55.47
76598;BME280;65486;53.144;18.134;2023-05-10T02:54:32;101385.85;;;6.71;55.56
76598;BME280;65486;53.144;18.134;2023-05-10T02:57:01;101378.98;;;6.69;55.65
76598;BME280;65486;53.144;18.134;2023-05-10T02:59:32;101378.77;;;6.67;55.83
76598;BME280;65486;53.144;18.134;2023-05-10T03:02:00;101381.27;;;6.66;55.69
76598;BME280;65486;53.144;18.134;2023-05-10T03:04:28;101381.39;;;6.66;55.61
76598;BME280;65486;53.144;18.134;2023-05-10T03:06:59;101382.05;;;6.67;55.45
76598;BME280;65486;53.144;18.134;2023-05-10T03:09:26;101380.89;;;6.69;55.69
76598;BME280;65486;53.144;18.134;2023-05-10T03:12:15;101383.33;;;6.71;55.43
76598;BME280;65486;53.144;18.134;2023-05-10T03:15:11;101380.62;;;6.74;55.51
76598;BME280;65486;53.144;18.134;2023-05-10T03:18:13;101383.51;;;6.74;55.56
76598;BME280;65486;53.144;18.134;2023-05-10T03:20:46;101384.64;;;6.77;55.34
76598;BME280;65486;53.144;18.134;2023-05-10T03:23:27;101381.84;;;6.81;55.30
76598;BME280;65486;53.144;18.134;2023-05-10T03:25:57;101382.09;;;6.83;55.17
76598;BME280;65486;53.144;18.134;2023-05-10T03:28:27;101382.08;;;6.84;55.28
76598;BME280;65486;53.144;18.134;2023-05-10T03:30:55;101377.91;;;6.88;55.31
76598;BME280;65486;53.144;18.134;2023-05-10T03:33:24;101379.50;;;6.93;55.08
76598;BME280;65486;53.144;18.134;2023-05-10T03:35:51;101381.66;;;6.97;55.37
76598;BME280;65486;53.144;18.134;2023-05-10T03:38:18;101378.23;;;7.04;55.20
76598;BME280;65486;53.144;18.134;2023-05-10T03:40:46;101372.13;;;7.09;55.23
76598;BME280;65486;53.144;18.134;2023-05-10T03:43:13;101375.03;;;7.14;54.80
76598;BME280;65486;53.144;18.134;2023-05-10T03:45:40;101378.52;;;7.18;54.84
76598;BME280;65486;53.144;18.134;2023-05-10T03:48:07;101375.63;;;7.24;54.97
76598;BME280;65486;53.144;18.134;2023-05-10T03:50:34;101375.85;;;7.31;54.53
76598;BME280;65486;53.144;18.134;2023-05-10T03:53:01;101372.45;;;7.38;54.49
76598;BME280;65486;53.144;18.134;2023-05-10T03:55:31;101372.73;;;7.46;54.45
76598;BME280;65486;53.144;18.134;2023-05-10T03:58:01;101371.53;;;7.54;54.38
76598;BME280;65486;53.144;18.134;2023-05-10T04:00:28;101371.58;;;7.61;54.25
76598;BME280;65486;53.144;18.134;2023-05-10T04:02:57;101368.71;;;7.69;54.28
76598;BME280;65486;53.144;18.134;2023-05-10T04:05:24;101370.15;;;7.79;54.09
76598;BME280;65486;53.144;18.134;2023-05-10T04:07:52;101371.14;;;7.87;53.82
76598;BME280;65486;53.144;18.134;2023-05-10T04:10:21;101368.48;;;7.96;53.72
76598;BME280;65486;53.144;18.134;2023-05-10T04:12:49;101371.65;;;8.06;53.42
76598;BME280;65486;53.144;18.134;2023-05-10T04:15:22;101370.80;;;8.19;53.40
76598;BME280;65486;53.144;18.134;2023-05-10T04:17:49;101371.58;;;8.30;53.09
76598;BME280;65486;53.144;18.134;2023-05-10T04:20:17;101369.43;;;8.39;52.89
76598;BME280;65486;53.144;18.134;2023-05-10T04:22:44;101368.91;;;8.51;52.40
76598;BME280;65486;53.144;18.134;2023-05-10T04:25:11;101369.55;;;8.62;52.22
76598;BME280;65486;53.144;18.134;2023-05-10T04:27:38;101368.52;;;8.72;51.80
76598;BME280;65486;53.144;18.134;2023-05-10T04:30:07;101369.92;;;8.84;51.50
76598;BME280;65486;53.144;18.134;2023-05-10T04:32:39;101366.07;;;8.95;51.35
76598;BME280;65486;53.144;18.134;2023-05-10T04:35:08;101367.87;;;9.08;51.08
76598;BME280;65486;53.144;18.134;2023-05-10T04:37:36;101360.81;;;9.20;51.12
76598;BME280;65486;53.144;18.134;2023-05-10T04:40:04;101360.41;;;9.34;50.91
76598;BME280;65486;53.144;18.134;2023-05-10T04:42:31;101365.17;;;9.47;50.17
76598;BME280;65486;53.144;18.134;2023-05-10T04:44:59;101355.13;;;9.60;50.01
76598;BME280;65486;53.144;18.134;2023-05-10T04:47:26;101358.27;;;9.78;49.55
76598;BME280;65486;53.144;18.134;2023-05-10T04:49:53;101355.20;;;9.87;48.91
76598;BME280;65486;53.144;18.134;2023-05-10T04:52:20;101356.48;;;9.92;48.75
76598;BME280;65486;53.144;18.134;2023-05-10T04:54:51;101355.68;;;10.00;48.90
76598;BME280;65486;53.144;18.134;2023-05-10T04:57:20;101361.41;;;10.09;49.10
76598;BME280;65486;53.144;18.134;2023-05-10T04:59:47;101360.20;;;10.18;48.94
76598;BME280;65486;53.144;18.134;2023-05-10T05:02:14;101359.40;;;10.30;48.89
76598;BME280;65486;53.144;18.134;2023-05-10T05:04:41;101357.29;;;10.45;48.30
76598;BME280;65486;53.144;18.134;2023-05-10T05:07:10;101353.39;;;10.64;48.17
76598;BME280;65486;53.144;18.134;2023-05-10T05:09:37;101350.58;;;10.87;47.84
76598;BME280;65486;53.144;18.134;2023-05-10T05:12:04;101352.28;;;11.13;47.78
76598;BME280;65486;53.144;18.134;2023-05-10T05:14:32;101352.86;;;11.39;47.20
76598;BME280;65486;53.144;18.134;2023-05-10T05:17:00;101348.52;;;11.74;45.86
76598;BME280;65486;53.144;18.134;2023-05-10T05:19:53;101356.38;;;12.86;43.98
76598;BME280;65486;53.144;18.134;2023-05-10T05:22:26;101348.25;;;14.30;42.38
76598;BME280;65486;53.144;18.134;2023-05-10T05:24:58;101343.63;;;15.82;39.62
76598;BME280;65486;53.144;18.134;2023-05-10T05:27:26;101342.27;;;17.19;37.78
76598;BME280;65486;53.144;18.134;2023-05-10T05:29:55;101322.64;;;18.44;35.95
76598;BME280;65486;53.144;18.134;2023-05-10T05:32:23;101331.27;;;19.71;34.46
76598;BME280;65486;53.144;18.134;2023-05-10T05:34:51;101333.42;;;20.65;32.51
76598;BME280;65486;53.144;18.134;2023-05-10T05:37:19;101334.10;;;21.31;30.82
76598;BME280;65486;53.144;18.134;2023-05-10T05:39:50;101332.42;;;21.94;29.25
76598;BME280;65486;53.144;18.134;2023-05-10T05:42:20;101324.61;;;22.66;30.21
76598;BME280;65486;53.144;18.134;2023-05-10T05:44:51;101325.92;;;23.44;28.37
76598;BME280;65486;53.144;18.134;2023-05-10T05:47:21;101326.31;;;24.05;25.84
76598;BME280;65486;53.144;18.134;2023-05-10T05:50:02;101323.80;;;24.34;25.53
76598;BME280;65486;53.144;18.134;2023-05-10T05:52:30;101326.71;;;24.64;25.09
76598;BME280;65486;53.144;18.134;2023-05-10T05:54:57;101318.26;;;25.00;25.24
76598;BME280;65486;53.144;18.134;2023-05-10T05:57:24;101321.09;;;25.61;23.67
76598;BME280;65486;53.144;18.134;2023-05-10T05:59:53;101321.38;;;25.94;22.82
76598;BME280;65486;53.144;18.134;2023-05-10T06:02:20;101319.94;;;26.14;23.01
76598;BME280;65486;53.144;18.134;2023-05-10T06:04:48;101315.77;;;26.45;22.43
76598;BME280;65486;53.144;18.134;2023-05-10T06:07:15;101314.45;;;26.65;21.36
76598;BME280;65486;53.144;18.134;2023-05-10T06:09:47;101319.00;;;27.11;21.05
76598;BME280;65486;53.144;18.134;2023-05-10T06:12:14;101314.68;;;27.49;20.21
76598;BME280;65486;53.144;18.134;2023-05-10T06:14:41;101318.93;;;27.72;20.42
76598;BME280;65486;53.144;18.134;2023-05-10T06:17:08;101315.52;;;27.87;19.30
76598;BME280;65486;53.144;18.134;2023-05-10T06:19:35;101318.77;;;28.25;19.69
76598;BME280;65486;53.144;18.134;2023-05-10T06:22:03;101315.29;;;28.61;18.63
76598;BME280;65486;53.144;18.134;2023-05-10T06:24:30;101319.11;;;28.79;19.01
76598;BME280;65486;53.144;18.134;2023-05-10T06:26:58;101319.25;;;29.21;17.88
76598;BME280;65486;53.144;18.134;2023-05-10T06:29:28;101313.45;;;29.35;17.34
76598;BME280;65486;53.144;18.134;2023-05-10T06:31:56;101318.93;;;29.54;17.40
76598;BME280;65486;53.144;18.134;2023-05-10T06:34:23;101310.67;;;29.78;17.28
76598;BME280;65486;53.144;18.134;2023-05-10T06:36:50;101318.61;;;30.12;16.98
76598;BME280;65486;53.144;18.134;2023-05-10T06:39:17;101312.39;;;30.19;15.62
76598;BME280;65486;53.144;18.134;2023-05-10T06:41:44;101313.33;;;30.11;14.88
76598;BME280;65486;53.144;18.134;2023-05-10T06:44:18;101315.55;;;29.82;15.71
76598;BME280;65486;53.144;18.134;2023-05-10T06:46:45;101309.13;;;29.90;15.64
76598;BME280;65486;53.144;18.134;2023-05-10T06:49:14;101312.34;;;29.88;15.23
76598;BME280;65486;53.144;18.134;2023-05-10T06:51:42;101306.67;;;29.68;15.14
76598;BME280;65486;53.144;18.134;2023-05-10T06:54:09;101304.12;;;29.55;15.59
76598;BME280;65486;53.144;18.134;2023-05-10T06:56:36;101304.73;;;29.67;15.50
76598;BME280;65486;53.144;18.134;2023-05-10T06:59:04;101306.43;;;29.65;14.94
76598;BME280;65486;53.144;18.134;2023-05-10T07:01:32;101305.89;;;29.30;15.18
76598;BME280;65486;53.144;18.134;2023-05-10T07:04:00;101303.41;;;29.14;15.42
76598;BME280;65486;53.144;18.134;2023-05-10T07:06:29;101299.71;;;29.30;15.70
76598;BME280;65486;53.144;18.134;2023-05-10T07:08:57;101306.02;;;29.74;15.90
76598;BME280;65486;53.144;18.134;2023-05-10T07:11:26;101308.17;;;30.17;14.91
76598;BME280;65486;53.144;18.134;2023-05-10T07:13:56;101307.75;;;30.20;14.67
76598;BME280;65486;53.144;18.134;2023-05-10T07:16:23;101303.09;;;30.01;15.02
76598;BME280;65486;53.144;18.134;2023-05-10T07:18:49;101297.83;;;30.13;15.44
76598;BME280;65486;53.144;18.134;2023-05-10T07:21:17;101299.96;;;30.54;15.10
76598;BME280;65486;53.144;18.134;2023-05-10T07:23:44;101302.20;;;30.57;14.59
76598;BME280;65486;53.144;18.134;2023-05-10T07:26:11;101302.52;;;30.30;14.20
76598;BME280;65486;53.144;18.134;2023-05-10T07:28:40;101301.94;;;29.59;14.35
76598;BME280;65486;53.144;18.134;2023-05-10T07:31:09;101302.27;;;29.17;14.64
76598;BME280;65486;53.144;18.134;2023-05-10T07:33:38;101300.97;;;29.10;14.41
76598;BME280;65486;53.144;18.134;2023-05-10T07:36:06;101299.23;;;28.89;14.65
76598;BME280;65486;53.144;18.134;2023-05-10T07:38:33;101297.67;;;28.73;14.99
76598;BME280;65486;53.144;18.134;2023-05-10T07:41:00;101299.70;;;28.49;14.98
76598;BME280;65486;53.144;18.134;2023-05-10T07:43:27;101305.02;;;28.24;15.03
76598;BME280;65486;53.144;18.134;2023-05-10T07:45:54;101306.63;;;28.19;15.13
76598;BME280;65486;53.144;18.134;2023-05-10T07:48:22;101296.97;;;28.09;15.22
76598;BME280;65486;53.144;18.134;2023-05-10T07:50:49;101304.13;;;28.18;15.23
76598;BME280;65486;53.144;18.134;2023-05-10T07:53:16;101295.70;;;28.40;15.26
76598;BME280;65486;53.144;18.134;2023-05-10T07:55:43;101296.58;;;28.72;15.27
76598;BME280;65486;53.144;18.134;2023-05-10T07:58:10;101296.02;;;29.17;15.14
76598;BME280;65486;53.144;18.134;2023-05-10T08:00:37;101302.13;;;29.24;14.59
76598;BME280;65486;53.144;18.134;2023-05-10T08:03:07;101295.16;;;29.06;14.73
76598;BME280;65486;53.144;18.134;2023-05-10T08:05:34;101293.34;;;29.20;14.72
76598;BME280;65486;53.144;18.134;2023-05-10T08:08:01;101291.03;;;29.36;14.59
76598;BME280;65486;53.144;18.134;2023-05-10T08:10:28;101302.47;;;29.49;14.52
76598;BME280;65486;53.144;18.134;2023-05-10T08:12:59;101294.84;;;29.49;14.27
76598;BME280;65486;53.144;18.134;2023-05-10T08:15:26;101297.59;;;29.21;14.14
76598;BME280;65486;53.144;18.134;2023-05-10T08:17:55;101291.55;;;29.01;14.39
76598;BME280;65486;53.144;18.134;2023-05-10T08:20:23;101292.25;;;28.90;14.46
76598;BME280;65486;53.144;18.134;2023-05-10T08:22:49;101288.95;;;28.84;14.57
76598;BME280;65486;53.144;18.134;2023-05-10T08:25:16;101296.80;;;28.74;14.28
76598;BME280;65486;53.144;18.134;2023-05-10T08:27:43;101289.54;;;28.38;14.33
76598;BME280;65486;53.144;18.134;2023-05-10T08:30:11;101295.16;;;27.93;14.59
76598;BME280;65486;53.144;18.134;2023-05-10T08:32:41;101289.95;;;27.54;15.07
76598;BME280;65486;53.144;18.134;2023-05-10T08:35:08;101291.86;;;27.03;15.32
76598;BME280;65486;53.144;18.134;2023-05-10T08:37:34;101304.34;;;27.18;15.50
76598;BME280;65486;53.144;18.134;2023-05-10T08:40:02;101296.41;;;27.45;15.24
76598;BME280;65486;53.144;18.134;2023-05-10T08:42:30;101289.55;;;27.62;15.16
76598;BME280;65486;53.144;18.134;2023-05-10T08:45:02;101294.98;;;27.75;15.16
76598;BME280;65486;53.144;18.134;2023-05-10T08:47:31;101288.88;;;27.83;15.09
76598;BME280;65486;53.144;18.134;2023-05-10T08:49:58;101289.98;;;28.12;15.07
76598;BME280;65486;53.144;18.134;2023-05-10T08:52:28;101285.77;;;28.57;14.89
76598;BME280;65486;53.144;18.134;2023-05-10T08:54:56;101281.15;;;28.93;14.99
76598;BME280;65486;53.144;18.134;2023-05-10T08:57:23;101281.83;;;29.17;14.48
76598;BME280;65486;53.144;18.134;2023-05-10T08:59:50;101284.02;;;29.43;14.48
76598;BME280;65486;53.144;18.134;2023-05-10T09:02:18;101295.09;;;29.58;14.01
76598;BME280;65486;53.144;18.134;2023-05-10T09:04:47;101287.70;;;29.35;13.82
76598;BME280;65486;53.144;18.134;2023-05-10T09:07:16;101281.98;;;29.20;14.16
76598;BME280;65486;53.144;18.134;2023-05-10T09:09:45;101275.50;;;29.15;14.42
76598;BME280;65486;53.144;18.134;2023-05-10T09:12:13;101276.98;;;29.25;14.21
76598;BME280;65486;53.144;18.134;2023-05-10T09:14:43;101284.29;;;29.20;14.06
76598;BME280;65486;53.144;18.134;2023-05-10T09:17:11;101280.11;;;29.14;14.18
76598;BME280;65486;53.144;18.134;2023-05-10T09:19:38;101283.80;;;29.19;14.13
76598;BME280;65486;53.144;18.134;2023-05-10T09:22:05;101277.91;;;29.18;14.18
76598;BME280;65486;53.144;18.134;2023-05-10T09:24:32;101279.22;;;29.03;13.95
76598;BME280;65486;53.144;18.134;2023-05-10T09:27:01;101275.45;;;28.70;14.23
76598;BME280;65486;53.144;18.134;2023-05-10T09:29:42;101277.31;;;28.68;14.28
76598;BME280;65486;53.144;18.134;2023-05-10T09:32:10;101279.26;;;28.88;14.38
76598;BME280;65486;53.144;18.134;2023-05-10T09:34:37;101270.06;;;29.07;14.22
76598;BME280;65486;53.144;18.134;2023-05-10T09:37:06;101271.62;;;29.19;14.14
76598;BME280;65486;53.144;18.134;2023-05-10T09:39:36;101278.61;;;29.42;14.19
76598;BME280;65486;53.144;18.134;2023-05-10T09:42:08;101269.46;;;29.68;14.04
76598;BME280;65486;53.144;18.134;2023-05-10T09:44:37;101271.84;;;30.02;13.77
76598;BME280;65486;53.144;18.134;2023-05-10T09:47:09;101272.12;;;30.14;13.41
76598;BME280;65486;53.144;18.134;2023-05-10T09:49:39;101268.61;;;30.37;13.60
76598;BME280;65486;53.144;18.134;2023-05-10T09:52:13;101261.80;;;30.53;13.21
76598;BME280;65486;53.144;18.134;2023-05-10T09:54:51;101268.02;;;30.29;13.19
76598;BME280;65486;53.144;18.134;2023-05-10T09:57:23;101270.98;;;29.75;13.54
76598;BME280;65486;53.144;18.134;2023-05-10T09:59:50;101271.45;;;29.73;13.57
76598;BME280;65486;53.144;18.134;2023-05-10T10:02:17;101272.02;;;29.62;13.81
76598;BME280;65486;53.144;18.134;2023-05-10T10:04:48;101264.04;;;29.47;13.80
76598;BME280;65486;53.144;18.134;2023-05-10T10:07:22;101257.05;;;29.13;14.11
76598;BME280;65486;53.144;18.134;2023-05-10T10:09:52;101251.90;;;29.33;14.48
76598;BME280;65486;53.144;18.134;2023-05-10T10:12:20;101247.25;;;29.79;13.77
76598;BME280;65486;53.144;18.134;2023-05-10T10:14:49;101252.77;;;30.01;13.86
76598;BME280;65486;53.144;18.134;2023-05-10T10:17:17;101250.63;;;29.91;13.66
76598;BME280;65486;53.144;18.134;2023-05-10T10:19:45;101247.96;;;29.24;13.57
76598;BME280;65486;53.144;18.134;2023-05-10T10:22:12;101243.27;;;29.01;14.25
76598;BME280;65486;53.144;18.134;2023-05-10T10:24:40;101238.20;;;29.23;14.38
76598;BME280;65486;53.144;18.134;2023-05-10T10:30:39;101238.58;;;28.79;14.43
76598;BME280;65486;53.144;18.134;2023-05-10T10:36:03;101236.09;;;28.92;14.33
76598;BME280;65486;53.144;18.134;2023-05-10T10:38:59;101232.70;;;28.56;14.91
76598;BME280;65486;53.144;18.134;2023-05-10T10:44:24;101240.53;;;27.98;14.75
76598;BME280;65486;53.144;18.134;2023-05-10T10:50:06;101238.65;;;27.38;15.82
76598;BME280;65486;53.144;18.134;2023-05-10T10:52:41;101223.27;;;26.95;16.46
76598;BME280;65486;53.144;18.134;2023-05-10T10:55:20;101241.30;;;26.91;16.49
76598;BME280;65486;53.144;18.134;2023-05-10T10:57:57;101228.23;;;26.53;16.82
76598;BME280;65486;53.144;18.134;2023-05-10T11:00:34;101236.61;;;26.39;16.46
76598;BME280;65486;53.144;18.134;2023-05-10T11:05:40;101238.77;;;26.01;16.93
76598;BME280;65486;53.144;18.134;2023-05-10T11:18:39;101230.54;;;25.39;17.99
76598;BME280;65486;53.144;18.134;2023-05-10T11:21:09;101243.48;;;25.10;18.26
76598;BME280;65486;53.144;18.134;2023-05-10T11:23:50;101228.72;;;24.98;18.25
76598;BME280;65486;53.144;18.134;2023-05-10T11:26:18;101234.90;;;24.86;18.27
76598;BME280;65486;53.144;18.134;2023-05-10T11:28:49;101234.11;;;24.82;18.62
76598;BME280;65486;53.144;18.134;2023-05-10T11:31:19;101222.04;;;24.85;18.69
76598;BME280;65486;53.144;18.134;2023-05-10T11:33:51;101219.58;;;24.88;18.78
76598;BME280;65486;53.144;18.134;2023-05-10T11:36:21;101209.96;;;25.09;18.56
76598;BME280;65486;53.144;18.134;2023-05-10T11:38:48;101218.14;;;25.20;18.64
76598;BME280;65486;53.144;18.134;2023-05-10T11:41:18;101210.06;;;25.28;18.46
76598;BME280;65486;53.144;18.134;2023-05-10T11:43:46;101209.92;;;25.36;18.41
76598;BME280;65486;53.144;18.134;2023-05-10T11:46:17;101218.38;;;25.34;18.45
76598;BME280;65486;53.144;18.134;2023-05-10T11:48:56;101220.10;;;25.33;18.19
76598;BME280;65486;53.144;18.134;2023-05-10T11:51:26;101215.79;;;25.18;18.19
76598;BME280;65486;53.144;18.134;2023-05-10T11:53:56;101214.81;;;25.13;18.23
76598;BME280;65486;53.144;18.134;2023-05-10T11:56:32;101220.27;;;24.94;18.35
76598;BME280;65486;53.144;18.134;2023-05-10T11:59:01;101218.44;;;24.74;18.55
76598;BME280;65486;53.144;18.134;2023-05-10T12:01:30;101214.57;;;24.66;18.54
76598;BME280;65486;53.144;18.134;2023-05-10T12:03:58;101206.45;;;24.75;18.46
76598;BME280;65486;53.144;18.134;2023-05-10T12:06:31;101208.48;;;24.65;17.78
76598;BME280;65486;53.144;18.134;2023-05-10T12:08:59;101205.09;;;24.47;18.06
76598;BME280;65486;53.144;18.134;2023-05-10T12:11:31;101209.96;;;24.22;18.54
76598;BME280;65486;53.144;18.134;2023-05-10T12:13:59;101207.53;;;23.70;19.36
76598;BME280;65486;53.144;18.134;2023-05-10T12:16:28;101195.83;;;23.38;19.52
76598;BME280;65486;53.144;18.134;2023-05-10T12:18:58;101206.33;;;23.12;19.50
76598;BME280;65486;53.144;18.134;2023-05-10T12:21:28;101200.32;;;22.76;19.78
76598;BME280;65486;53.144;18.134;2023-05-10T12:24:00;101199.83;;;22.42;20.09
76598;BME280;65486;53.144;18.134;2023-05-10T12:26:28;101208.88;;;22.04;20.15
76598;BME280;65486;53.144;18.134;2023-05-10T12:29:13;101209.47;;;21.64;20.82
76598;BME280;65486;53.144;18.134;2023-05-10T12:31:53;101211.05;;;21.45;21.17
76598;BME280;65486;53.144;18.134;2023-05-10T12:34:30;101219.11;;;21.19;20.64
76598;BME280;65486;53.144;18.134;2023-05-10T12:36:59;101223.48;;;21.00;21.05
76598;BME280;65486;53.144;18.134;2023-05-10T12:39:41;101216.86;;;20.77;21.59
76598;BME280;65486;53.144;18.134;2023-05-10T12:42:10;101221.95;;;20.55;22.37
76598;BME280;65486;53.144;18.134;2023-05-10T12:44:38;101218.52;;;20.38;22.32
76598;BME280;65486;53.144;18.134;2023-05-10T12:47:08;101219.27;;;20.37;22.37
76598;BME280;65486;53.144;18.134;2023-05-10T12:49:36;101215.30;;;20.38;21.72
76598;BME280;65486;53.144;18.134;2023-05-10T12:52:04;101216.67;;;20.48;22.44
76598;BME280;65486;53.144;18.134;2023-05-10T12:54:31;101217.35;;;20.55;22.44
76598;BME280;65486;53.144;18.134;2023-05-10T12:56:57;101214.02;;;20.42;22.35
76598;BME280;65486;53.144;18.134;2023-05-10T12:59:32;101207.16;;;20.19;22.71
76598;BME280;65486;53.144;18.134;2023-05-10T13:01:59;101215.09;;;20.10;22.61
76598;BME280;65486;53.144;18.134;2023-05-10T13:04:26;101207.86;;;20.06;22.51
76598;BME280;65486;53.144;18.134;2023-05-10T13:06:54;101208.23;;;20.00;21.93
76598;BME280;65486;53.144;18.134;2023-05-10T13:09:26;101207.92;;;19.92;21.86
76598;BME280;65486;53.144;18.134;2023-05-10T13:11:57;101204.64;;;19.82;22.41
76598;BME280;65486;53.144;18.134;2023-05-10T13:14:26;101212.61;;;19.73;22.85
76598;BME280;65486;53.144;18.134;2023-05-10T13:17:10;101206.23;;;19.64;23.20
76598;BME280;65486;53.144;18.134;2023-05-10T13:19:38;101210.84;;;19.56;23.54
76598;BME280;65486;53.144;18.134;2023-05-10T13:22:08;101196.13;;;19.56;23.94
76598;BME280;65486;53.144;18.134;2023-05-10T13:24:35;101195.61;;;19.63;23.89
76598;BME280;65486;53.144;18.134;2023-05-10T13:27:03;101190.35;;;19.64;23.66
76598;BME280;65486;53.144;18.134;2023-05-10T13:29:31;101190.66;;;19.62;23.58
76598;BME280;65486;53.144;18.134;2023-05-10T13:31:59;101183.45;;;19.63;23.46